Time;durP1;ratioP1;P1;durP2;ratioP2;P2;SDS_P1;SDS_P2;PMS_P1;PMS_P2;Temp;Humidity;BMP_temperature;BMP_pressure;BME280_temperature;BME280_humidity;BME280_pressure;Samples;Min_cycle;Max_cycle;Signal;HPM_P1;HPM_P2
2023/11/20 00:00:12;;;;;;;10.90;1.67;;;11.70;99.90;;;;;;5061036;28;20068;-70
2023/11/20 00:02:42;;;;;;;7.80;1.13;;;11.70;99.90;;;;;;5059944;28;20040;-70
2023/11/20 00:05:09;;;;;;;12.98;1.55;;;11.70;99.90;;;;;;5060799;28;20044;-70
2023/11/20 00:07:34;;;;;;;11.63;1.48;;;11.80;99.90;;;;;;5061833;28;20032;-70
2023/11/20 00:10:00;;;;;;;11.88;1.20;;;11.70;99.90;;;;;;5059023;28;20110;-70
2023/11/20 00:12:26;;;;;;;9.75;1.10;;;11.80;99.90;;;;;;5063693;28;20129;-71
2023/11/20 00:14:51;;;;;;;8.88;1.05;;;11.70;99.90;;;;;;5060359;28;20052;-70
2023/11/20 00:17:17;;;;;;;8.75;1.33;;;11.70;99.90;;;;;;5062180;28;20159;-70
2023/11/20 00:19:45;;;;;;;9.82;1.60;;;11.70;99.90;;;;;;5060975;28;20049;-70
2023/11/20 00:22:10;;;;;;;7.50;0.82;;;11.70;99.90;;;;;;5063056;28;20041;-70
2023/11/20 00:24:37;;;;;;;9.90;1.30;;;11.70;99.90;;;;;;5061761;28;20941;-70
2023/11/20 00:27:04;;;;;;;11.32;1.20;;;11.70;99.90;;;;;;5060400;28;20040;-70
2023/11/20 00:29:30;;;;;;;7.90;1.55;;;11.70;99.90;;;;;;5061932;28;20051;-70
2023/11/20 00:31:56;;;;;;;9.52;1.80;;;11.70;99.90;;;;;;5058679;28;20124;-70
2023/11/20 00:34:22;;;;;;;12.40;2.38;;;11.80;99.90;;;;;;5061106;28;20102;-70
2023/11/20 00:36:47;;;;;;;9.57;2.38;;;11.70;99.90;;;;;;5062390;28;20040;-70
2023/11/20 00:39:13;;;;;;;18.27;2.30;;;11.70;99.90;;;;;;5064292;28;20036;-70
2023/11/20 00:41:39;;;;;;;10.82;1.73;;;11.70;99.90;;;;;;5066111;28;20040;-70
2023/11/20 00:44:06;;;;;;;16.13;2.60;;;11.70;99.90;;;;;;5065657;28;20040;-70
2023/11/20 00:46:35;;;;;;;14.43;2.45;;;11.70;99.90;;;;;;5062265;28;20653;-70
2023/11/20 00:49:02;;;;;;;13.00;2.13;;;11.70;99.90;;;;;;5058839;28;20063;-70
2023/11/20 00:51:29;;;;;;;13.07;2.22;;;11.70;99.90;;;;;;5061314;28;20474;-70
2023/11/20 00:53:55;;;;;;;11.20;1.77;;;11.70;99.90;;;;;;5092037;28;20502;-70
2023/11/20 00:56:21;;;;;;;7.97;1.50;;;11.80;99.90;;;;;;5056427;28;20047;-70
2023/11/20 00:58:47;;;;;;;8.07;1.30;;;11.70;99.90;;;;;;5059586;28;20121;-70
2023/11/20 01:01:13;;;;;;;10.60;1.73;;;11.70;99.90;;;;;;5064133;28;20127;-70
2023/11/20 01:03:39;;;;;;;7.55;1.17;;;11.60;99.90;;;;;;5060062;28;20057;-70
2023/11/20 01:06:05;;;;;;;6.43;1.10;;;11.70;99.90;;;;;;5056235;28;20043;-70
2023/11/20 01:08:32;;;;;;;6.13;1.33;;;11.70;99.90;;;;;;5064542;28;20042;-70
2023/11/20 01:10:57;;;;;;;4.05;1.15;;;11.70;99.90;;;;;;5058236;28;20063;-70
2023/11/20 01:13:23;;;;;;;5.93;1.02;;;11.70;99.90;;;;;;5062191;28;20487;-70
2023/11/20 01:15:49;;;;;;;4.38;0.80;;;11.70;99.90;;;;;;5059671;28;20040;-70
2023/11/20 01:18:14;;;;;;;7.82;1.15;;;11.70;99.90;;;;;;5060747;28;20036;-70
2023/11/20 01:20:40;;;;;;;6.60;0.82;;;11.70;99.90;;;;;;5061245;28;20041;-70
2023/11/20 01:23:06;;;;;;;6.82;1.02;;;11.70;99.90;;;;;;5060832;28;20119;-70
2023/11/20 01:25:32;;;;;;;5.15;0.50;;;11.60;99.90;;;;;;5062100;28;20072;-70
2023/11/20 01:27:58;;;;;;;3.92;0.60;;;11.70;99.90;;;;;;5059725;28;20124;-70
2023/11/20 01:30:26;;;;;;;4.85;1.05;;;11.60;99.90;;;;;;5090930;28;20041;-70
2023/11/20 01:32:51;;;;;;;8.98;0.88;;;11.60;99.90;;;;;;5060114;28;20040;-70
2023/11/20 01:35:17;;;;;;;6.43;1.08;;;11.60;99.90;;;;;;5062162;28;20044;-70
2023/11/20 01:37:43;;;;;;;5.30;0.88;;;11.60;99.90;;;;;;5066393;28;20094;-70
2023/11/20 01:40:12;;;;;;;6.38;0.77;;;11.60;99.90;;;;;;5064619;28;20084;-71
2023/11/20 01:42:38;;;;;;;5.82;0.70;;;11.60;99.90;;;;;;5065009;28;20106;-70
2023/11/20 01:45:04;;;;;;;7.65;1.05;;;11.60;99.90;;;;;;5066569;28;20045;-70
2023/11/20 01:47:29;;;;;;;5.60;0.88;;;11.60;99.90;;;;;;5061342;28;20037;-70
2023/11/20 01:49:55;;;;;;;6.47;1.23;;;11.60;99.90;;;;;;5058873;28;20822;-70
2023/11/20 01:52:21;;;;;;;7.07;1.02;;;11.60;99.90;;;;;;5061668;28;20083;-70
2023/11/20 01:54:47;;;;;;;6.50;0.90;;;11.60;99.90;;;;;;5059395;28;20794;-70
2023/11/20 01:57:13;;;;;;;4.55;0.80;;;11.60;99.90;;;;;;5059547;28;20051;-70
2023/11/20 01:59:39;;;;;;;4.43;0.70;;;11.60;99.90;;;;;;5041389;28;20097;-70
2023/11/20 02:02:05;;;;;;;3.85;0.93;;;11.60;99.90;;;;;;5060656;28;20036;-70
2023/11/20 02:04:33;;;;;;;7.07;1.08;;;11.60;99.90;;;;;;5059829;28;20037;-70
2023/11/20 02:06:59;;;;;;;2.58;0.45;;;11.60;99.90;;;;;;5056571;28;20556;-70
2023/11/20 02:09:25;;;;;;;3.47;0.50;;;11.60;99.90;;;;;;5059197;28;20040;-70
2023/11/20 02:11:50;;;;;;;2.30;0.40;;;11.60;99.90;;;;;;5066975;28;20043;-70
2023/11/20 02:14:16;;;;;;;1.77;0.30;;;11.50;99.90;;;;;;5065600;28;20049;-70
2023/11/20 02:16:42;;;;;;;2.80;0.82;;;11.50;99.90;;;;;;5068824;28;20043;-70
2023/11/20 02:19:12;;;;;;;5.10;1.00;;;11.60;99.90;;;;;;5067400;28;20073;-70
2023/11/20 02:21:37;;;;;;;4.28;0.70;;;11.50;99.90;;;;;;5060260;28;20040;-70
2023/11/20 02:24:04;;;;;;;4.97;0.80;;;12.00;99.90;;;;;;5066155;28;20463;-71
2023/11/20 02:26:32;;;;;;;1.77;0.77;;;11.50;99.90;;;;;;5064566;28;20119;-70
2023/11/20 02:29:06;;;;;;;7.97;0.90;;;11.50;99.90;;;;;;5063815;28;20394;-70
2023/11/20 02:31:33;;;;;;;4.80;0.88;;;11.60;99.90;;;;;;5096803;28;20506;-70
2023/11/20 02:34:01;;;;;;;1.98;0.40;;;11.50;99.90;;;;;;5066176;28;20055;-70
2023/11/20 02:36:27;;;;;;;5.00;1.05;;;11.50;99.90;;;;;;5061203;28;20124;-70
2023/11/20 02:38:52;;;;;;;5.65;0.90;;;11.50;99.90;;;;;;5063468;28;20034;-70
2023/11/20 02:41:19;;;;;;;5.55;0.80;;;11.50;99.90;;;;;;5061952;28;20037;-70
2023/11/20 02:43:45;;;;;;;4.82;0.82;;;11.60;99.90;;;;;;5062807;28;20048;-70
2023/11/20 02:46:10;;;;;;;3.85;0.65;;;11.50;99.90;;;;;;5092800;28;20395;-70
2023/11/20 02:48:36;;;;;;;3.83;0.60;;;11.50;99.90;;;;;;5046320;28;20127;-70
2023/11/20 02:51:04;;;;;;;3.50;0.50;;;11.50;99.90;;;;;;5067297;28;20033;-70
2023/11/20 02:53:30;;;;;;;2.95;0.47;;;11.40;99.90;;;;;;5066118;28;20119;-70
2023/11/20 02:55:56;;;;;;;3.00;0.30;;;11.50;99.90;;;;;;5061799;28;20098;-70
2023/11/20 02:58:23;;;;;;;4.45;0.40;;;11.50;99.90;;;;;;5060083;28;20082;-70
2023/11/20 03:00:53;;;;;;;3.20;0.55;;;11.60;99.90;;;;;;5062172;28;20040;-70
2023/11/20 03:03:19;;;;;;;4.47;0.77;;;11.40;99.90;;;;;;5064604;28;20123;-71
2023/11/20 03:05:44;;;;;;;3.60;0.40;;;11.40;99.90;;;;;;5059229;28;20063;-70
2023/11/20 03:08:11;;;;;;;5.55;0.80;;;11.50;99.90;;;;;;5060562;28;20054;-71
2023/11/20 03:10:37;;;;;;;4.80;0.50;;;11.40;99.90;;;;;;5060105;28;20086;-70
2023/11/20 03:13:03;;;;;;;1.88;0.50;;;11.50;99.90;;;;;;5063585;28;20388;-70
2023/11/20 03:15:28;;;;;;;1.88;0.22;;;11.40;99.90;;;;;;5066554;28;20044;-71
2023/11/20 03:17:54;;;;;;;3.67;0.30;;;11.60;99.90;;;;;;5065302;28;20041;-70
2023/11/20 03:20:20;;;;;;;2.92;0.52;;;11.50;99.90;;;;;;5060767;28;20098;-70
2023/11/20 03:22:46;;;;;;;3.15;0.50;;;11.60;99.90;;;;;;5060017;28;20041;-70
2023/11/20 03:25:12;;;;;;;3.70;0.50;;;11.40;99.90;;;;;;5062558;28;20044;-70
2023/11/20 03:27:38;;;;;;;3.20;0.47;;;11.40;99.90;;;;;;5060882;28;20049;-70
2023/11/20 03:30:05;;;;;;;2.38;0.30;;;11.40;99.90;;;;;;5060114;28;21961;-70
2023/11/20 03:32:31;;;;;;;3.00;0.35;;;11.40;99.90;;;;;;5061208;28;20045;-70
2023/11/20 03:34:56;;;;;;;3.35;0.30;;;11.40;99.90;;;;;;5062824;28;20064;-70
2023/11/20 03:37:22;;;;;;;1.88;0.20;;;11.40;99.90;;;;;;5060268;28;20040;-70
2023/11/20 03:39:47;;;;;;;2.92;0.25;;;11.40;99.90;;;;;;5089898;28;20380;-70
2023/11/20 03:42:13;;;;;;;0.93;0.15;;;11.40;99.90;;;;;;5092551;28;20113;-70
2023/11/20 03:44:39;;;;;;;1.58;0.20;;;11.40;99.90;;;;;;5058888;28;20047;-70
2023/11/20 03:47:04;;;;;;;0.77;0.10;;;11.40;99.90;;;;;;5061359;28;20428;-70
2023/11/20 03:49:30;;;;;;;1.52;0.20;;;11.40;99.90;;;;;;5059182;28;20499;-70
2023/11/20 03:51:55;;;;;;;1.15;0.17;;;11.40;99.90;;;;;;5061009;28;20401;-70
2023/11/20 03:54:21;;;;;;;1.83;0.10;;;11.40;99.90;;;;;;5060714;28;20036;-70
2023/11/20 03:56:47;;;;;;;0.68;0.10;;;11.40;99.90;;;;;;5062591;28;20247;-70
2023/11/20 03:59:15;;;;;;;1.17;0.22;;;11.30;99.90;;;;;;5060370;28;20044;-70
2023/11/20 04:01:40;;;;;;;0.52;0.20;;;11.50;99.90;;;;;;5075010;28;20483;-70
2023/11/20 04:04:08;;;;;;;1.52;0.20;;;11.30;99.90;;;;;;5063759;28;20044;-70
2023/11/20 04:06:33;;;;;;;0.50;0.15;;;11.40;99.90;;;;;;5095279;27;20040;-70
2023/11/20 04:08:59;;;;;;;2.15;0.20;;;11.30;99.90;;;;;;5060289;28;20044;-70
2023/11/20 04:11:24;;;;;;;1.75;0.20;;;11.30;99.90;;;;;;5058578;28;20097;-70
2023/11/20 04:13:50;;;;;;;2.25;0.43;;;11.30;99.90;;;;;;5062859;28;20032;-70
2023/11/20 04:16:16;;;;;;;1.73;0.20;;;11.30;99.90;;;;;;5060942;28;20047;-70
2023/11/20 04:18:44;;;;;;;3.17;0.20;;;11.30;99.90;;;;;;5060454;28;20048;-70
2023/11/20 04:21:10;;;;;;;1.67;0.28;;;11.30;99.90;;;;;;5061792;28;20098;-70
2023/11/20 04:23:36;;;;;;;0.75;0.22;;;11.30;99.90;;;;;;5060352;28;20474;-70
2023/11/20 04:26:02;;;;;;;2.67;0.40;;;11.60;99.90;;;;;;5058324;28;20036;-70
2023/11/20 04:28:30;;;;;;;1.75;0.40;;;11.30;99.90;;;;;;5062649;28;20051;-70
2023/11/20 04:31:00;;;;;;;1.42;0.30;;;11.50;99.90;;;;;;5057382;28;20067;-70
2023/11/20 04:33:26;;;;;;;0.75;0.20;;;11.30;99.90;;;;;;5065159;28;20043;-70
2023/11/20 04:35:51;;;;;;;1.38;0.50;;;11.30;99.90;;;;;;5065303;28;20085;-70
2023/11/20 04:38:17;;;;;;;1.33;0.20;;;11.30;99.90;;;;;;5065138;28;20036;-70
2023/11/20 04:40:43;;;;;;;3.53;0.30;;;11.30;99.90;;;;;;5063593;28;20051;-70
2023/11/20 04:43:09;;;;;;;1.15;0.47;;;11.30;99.90;;;;;;5065902;28;20070;-70
2023/11/20 04:45:34;;;;;;;2.17;0.20;;;11.20;99.90;;;;;;5064494;28;20036;-70
2023/11/20 04:48:00;;;;;;;1.20;0.22;;;11.30;99.90;;;;;;5066360;28;20457;-70
2023/11/20 04:50:26;;;;;;;1.27;0.30;;;11.30;99.90;;;;;;5063366;28;20035;-70
2023/11/20 04:52:51;;;;;;;1.77;0.32;;;11.20;99.90;;;;;;5065253;28;20112;-70
2023/11/20 04:55:17;;;;;;;2.40;0.45;;;11.20;99.90;;;;;;5057529;28;20658;-70
2023/11/20 04:57:44;;;;;;;2.78;0.30;;;11.40;99.90;;;;;;5065014;28;20036;-70
2023/11/20 05:00:12;;;;;;;2.38;0.40;;;11.20;99.90;;;;;;5060353;28;20044;-70
2023/11/20 05:02:38;;;;;;;1.95;0.40;;;11.20;99.90;;;;;;5059068;28;20124;-70
2023/11/20 05:05:06;;;;;;;2.70;0.30;;;11.20;99.90;;;;;;5058918;28;20817;-70
2023/11/20 05:07:33;;;;;;;3.08;0.55;;;11.20;99.90;;;;;;5071815;28;20086;-70
2023/11/20 05:09:59;;;;;;;3.42;0.40;;;11.30;99.90;;;;;;5057732;28;20048;-70
2023/11/20 05:12:25;;;;;;;2.28;1.02;;;11.70;99.90;;;;;;5059947;28;20063;-70
2023/11/20 05:14:50;;;;;;;1.70;0.25;;;11.20;99.90;;;;;;5058695;28;20109;-70
2023/11/20 05:17:18;;;;;;;1.20;0.30;;;11.30;99.90;;;;;;5061149;28;20055;-70
2023/11/20 05:19:44;;;;;;;0.90;0.28;;;11.40;99.90;;;;;;5076129;28;20040;-70
2023/11/20 05:22:11;;;;;;;1.92;0.20;;;11.40;99.90;;;;;;5059770;28;20040;-70
2023/11/20 05:24:38;;;;;;;3.30;0.38;;;11.20;99.90;;;;;;5059122;28;20047;-70
2023/11/20 05:27:03;;;;;;;2.20;0.40;;;11.20;99.90;;;;;;5061896;28;20048;-70
2023/11/20 05:29:29;;;;;;;3.22;0.47;;;11.10;99.90;;;;;;5056731;28;20037;-70
2023/11/20 05:31:55;;;;;;;0.80;0.30;;;11.10;99.90;;;;;;5060294;28;20490;-70
2023/11/20 05:34:20;;;;;;;3.88;0.40;;;11.10;99.90;;;;;;5061571;28;20037;-70
2023/11/20 05:36:47;;;;;;;3.15;0.35;;;11.10;99.90;;;;;;5058065;28;21538;-70
2023/11/20 05:39:13;;;;;;;1.23;0.20;;;11.10;99.90;;;;;;5062649;28;20040;-70
2023/11/20 05:41:39;;;;;;;2.05;0.40;;;11.10;99.90;;;;;;5065737;28;20495;-70
2023/11/20 05:44:04;;;;;;;2.53;0.40;;;11.10;99.90;;;;;;5078422;28;20101;-70
2023/11/20 05:46:30;;;;;;;4.22;0.40;;;11.10;99.90;;;;;;5065902;28;20471;-70
2023/11/20 05:48:56;;;;;;;3.03;0.30;;;11.00;99.90;;;;;;5062482;28;20483;-70
2023/11/20 05:51:21;;;;;;;3.30;0.57;;;11.00;99.90;;;;;;5100796;28;20051;-70
2023/11/20 05:53:47;;;;;;;3.28;0.77;;;11.00;99.90;;;;;;5101397;27;20052;-70
2023/11/20 05:56:13;;;;;;;4.30;0.60;;;11.00;99.90;;;;;;5064106;28;20498;-70
2023/11/20 05:58:39;;;;;;;4.28;0.77;;;11.00;99.90;;;;;;5060937;28;20085;-70
2023/11/20 06:01:05;;;;;;;6.72;0.95;;;11.00;99.90;;;;;;5063058;28;20048;-70
2023/11/20 06:03:31;;;;;;;6.35;0.70;;;10.90;99.90;;;;;;5064502;28;20091;-70
2023/11/20 06:05:57;;;;;;;4.93;0.63;;;10.90;99.90;;;;;;5071001;28;20484;-70
2023/11/20 06:08:23;;;;;;;2.38;0.40;;;10.90;99.90;;;;;;5068292;28;20064;-70
2023/11/20 06:10:49;;;;;;;2.78;0.47;;;10.90;99.90;;;;;;5094774;28;20041;-70
2023/11/20 06:13:14;;;;;;;4.03;0.80;;;10.90;99.90;;;;;;5063633;28;20036;-70
2023/11/20 06:15:40;;;;;;;3.72;0.52;;;10.90;99.90;;;;;;5069194;28;20040;-70
2023/11/20 06:18:05;;;;;;;3.50;0.63;;;10.90;99.90;;;;;;5103341;28;20048;-70
2023/11/20 06:20:32;;;;;;;1.98;0.52;;;10.90;99.90;;;;;;5069749;28;20040;-70
2023/11/20 06:22:58;;;;;;;3.20;0.40;;;10.90;99.90;;;;;;5071221;28;20048;-70
2023/11/20 06:25:24;;;;;;;2.95;0.60;;;10.90;99.90;;;;;;5072110;28;20051;-70
2023/11/20 06:27:49;;;;;;;6.30;0.55;;;11.20;99.90;;;;;;5070142;28;20155;-70
2023/11/20 06:30:15;;;;;;;3.63;0.50;;;10.90;99.90;;;;;;5068723;28;20040;-70
2023/11/20 06:32:40;;;;;;;6.47;0.38;;;10.90;99.90;;;;;;5081265;28;20069;-70
2023/11/20 06:35:07;;;;;;;2.63;0.50;;;10.90;99.90;;;;;;5071024;28;20467;-70
2023/11/20 06:37:33;;;;;;;2.60;0.43;;;10.80;99.90;;;;;;5071103;28;20051;-70
2023/11/20 06:39:59;;;;;;;2.53;0.52;;;10.80;99.90;;;;;;5068599;28;20109;-70
2023/11/20 06:42:25;;;;;;;5.50;0.50;;;10.90;99.90;;;;;;5072790;28;20052;-70
2023/11/20 06:44:50;;;;;;;3.78;0.43;;;10.80;99.90;;;;;;5069481;28;20045;-70
2023/11/20 06:47:16;;;;;;;5.15;0.50;;;10.80;99.90;;;;;;5070820;28;20494;-70
2023/11/20 06:49:42;;;;;;;2.83;0.65;;;10.80;99.90;;;;;;5068669;28;20032;-70
2023/11/20 06:52:08;;;;;;;4.18;0.50;;;10.80;99.90;;;;;;5086718;28;20037;-70
2023/11/20 06:54:34;;;;;;;3.95;0.63;;;10.80;99.90;;;;;;5069792;28;20060;-70
2023/11/20 06:57:00;;;;;;;3.63;1.17;;;10.70;99.90;;;;;;5070268;28;20101;-70
2023/11/20 06:59:29;;;;;;;3.70;1.02;;;10.80;99.90;;;;;;5070163;28;20125;-71
2023/11/20 07:01:54;;;;;;;2.85;0.60;;;10.80;99.90;;;;;;5069101;28;20052;-70
2023/11/20 07:04:20;;;;;;;4.03;0.50;;;11.10;99.90;;;;;;5069087;28;20044;-70
2023/11/20 07:06:47;;;;;;;6.22;0.60;;;10.80;99.90;;;;;;5071112;28;20105;-70
2023/11/20 07:09:14;;;;;;;4.40;0.63;;;10.70;99.90;;;;;;5104121;28;20055;-70
2023/11/20 07:11:43;;;;;;;4.05;0.88;;;10.80;99.90;;;;;;5101935;28;20115;-70
2023/11/20 07:14:10;;;;;;;5.57;1.20;;;10.70;99.90;;;;;;5069132;28;20774;-70
2023/11/20 07:16:36;;;;;;;4.10;0.55;;;10.70;99.90;;;;;;5071117;28;20101;-70
2023/11/20 07:19:02;;;;;;;5.30;0.90;;;10.70;99.90;;;;;;5068831;28;20044;-70
2023/11/20 07:21:29;;;;;;;7.15;0.73;;;10.70;99.90;;;;;;5068578;28;20414;-70
2023/11/20 07:23:58;;;;;;;11.43;1.35;;;10.70;99.90;;;;;;5070383;28;20059;-70
2023/11/20 07:26:24;;;;;;;10.25;1.42;;;10.70;99.90;;;;;;5099629;28;20040;-70
2023/11/20 07:28:49;;;;;;;8.13;1.33;;;10.80;99.90;;;;;;5069821;28;20035;-70
2023/11/20 07:31:28;;;;;;;16.98;1.83;;;10.70;99.90;;;;;;5067509;28;20041;-70
2023/11/20 07:33:54;;;;;;;13.45;3.17;;;10.70;99.90;;;;;;5070081;28;20049;-70
2023/11/20 07:36:20;;;;;;;15.43;2.75;;;10.70;99.90;;;;;;5067825;28;20398;-70
2023/11/20 07:38:47;;;;;;;19.98;2.85;;;10.80;99.90;;;;;;5086070;28;20418;-70
2023/11/20 07:41:14;;;;;;;15.10;3.25;;;10.70;99.90;;;;;;5069230;28;20086;-70
2023/11/20 07:43:39;;;;;;;16.55;2.70;;;10.70;99.90;;;;;;5069677;28;20044;-70
2023/11/20 07:46:06;;;;;;;19.25;3.28;;;10.70;99.90;;;;;;5069630;28;20051;-70
2023/11/20 07:48:32;;;;;;;15.60;2.90;;;10.70;99.90;;;;;;5069445;28;20132;-70
2023/11/20 07:50:59;;;;;;;23.17;4.00;;;10.80;99.90;;;;;;5069780;28;20451;-70
2023/11/20 07:53:25;;;;;;;18.35;3.80;;;10.90;99.90;;;;;;5069501;28;20072;-70
2023/11/20 07:55:51;;;;;;;22.20;3.10;;;10.70;99.90;;;;;;5069565;28;20048;-70
2023/11/20 07:58:16;;;;;;;16.73;3.15;;;10.70;99.90;;;;;;5067613;28;20049;-70
2023/11/20 08:00:42;;;;;;;22.90;2.70;;;10.70;99.90;;;;;;5068035;28;20032;-70
2023/11/20 08:03:08;;;;;;;19.08;3.08;;;10.80;99.90;;;;;;5067862;28;20048;-70
2023/11/20 08:05:34;;;;;;;13.60;2.40;;;10.80;99.90;;;;;;5067848;28;20055;-70
2023/11/20 08:08:00;;;;;;;13.85;2.22;;;10.70;99.90;;;;;;5070485;28;20071;-70
2023/11/20 08:10:26;;;;;;;28.45;3.70;;;10.70;99.90;;;;;;5053476;28;20063;-70
2023/11/20 08:12:51;;;;;;;21.60;3.50;;;10.70;99.90;;;;;;5067446;28;20398;-69
2023/11/20 08:15:17;;;;;;;19.13;3.40;;;10.80;99.90;;;;;;5068046;28;20052;-69
2023/11/20 08:17:43;;;;;;;18.90;2.72;;;10.70;99.90;;;;;;5070328;28;20040;-69
2023/11/20 08:20:09;;;;;;;22.73;2.95;;;10.70;99.90;;;;;;5066400;28;20497;-69
2023/11/20 08:22:36;;;;;;;14.20;2.03;;;10.80;99.90;;;;;;5067451;28;20040;-69
2023/11/20 08:25:02;;;;;;;18.70;3.92;;;10.80;99.90;;;;;;5068251;28;20040;-69
2023/11/20 08:27:29;;;;;;;15.93;2.75;;;11.00;99.90;;;;;;5066533;28;20036;-69
2023/11/20 08:29:55;;;;;;;24.83;3.92;;;11.00;99.90;;;;;;5067916;28;20123;-69
2023/11/20 08:32:20;;;;;;;19.55;3.17;;;11.20;99.90;;;;;;5069235;28;20107;-69
2023/11/20 08:34:46;;;;;;;26.25;3.30;;;10.80;99.90;;;;;;5067441;28;20471;-69
2023/11/20 08:37:12;;;;;;;17.08;2.55;;;10.80;99.90;;;;;;5068130;28;20044;-69
2023/11/20 08:39:39;;;;;;;21.48;2.42;;;10.80;99.90;;;;;;5065308;28;20368;-69
2023/11/20 08:42:05;;;;;;;25.88;3.10;;;10.80;99.90;;;;;;5070947;28;20040;-69
2023/11/20 08:44:32;;;;;;;18.60;3.25;;;10.80;99.90;;;;;;5069985;28;20033;-69
2023/11/20 08:46:59;;;;;;;16.95;3.95;;;10.80;99.90;;;;;;5069941;28;20058;-69
2023/11/20 08:49:26;;;;;;;23.30;2.85;;;10.90;99.90;;;;;;5071004;28;20408;-69
2023/11/20 08:51:52;;;;;;;16.55;3.17;;;10.90;99.90;;;;;;5070735;28;20090;-69
2023/11/20 08:54:18;;;;;;;19.08;2.83;;;10.90;99.90;;;;;;5067244;28;20048;-69
2023/11/20 08:56:46;;;;;;;19.55;2.80;;;11.00;99.90;;;;;;5067548;28;20051;-69
2023/11/20 08:59:14;;;;;;;18.35;2.70;;;11.00;99.90;;;;;;5068269;28;20051;-69
2023/11/20 09:01:40;;;;;;;16.17;3.53;;;11.00;99.90;;;;;;5069029;28;20082;-69
2023/11/20 09:04:06;;;;;;;18.67;3.05;;;11.00;99.90;;;;;;5068327;28;20442;-69
2023/11/20 09:06:32;;;;;;;17.77;2.72;;;11.00;99.90;;;;;;5069028;28;20036;-69
2023/11/20 09:08:58;;;;;;;18.15;2.35;;;11.00;99.90;;;;;;5070274;28;20036;-69
2023/11/20 09:11:24;;;;;;;16.85;2.95;;;11.10;99.90;;;;;;5099308;28;20086;-69
2023/11/20 09:13:52;;;;;;;15.80;2.50;;;11.00;99.90;;;;;;5067608;28;20063;-69
2023/11/20 09:16:20;;;;;;;19.63;3.15;;;11.00;99.90;;;;;;5066144;28;20044;-69
2023/11/20 09:18:46;;;;;;;16.55;2.88;;;11.00;99.90;;;;;;5069150;28;20081;-69
2023/11/20 09:21:13;;;;;;;14.48;2.38;;;10.90;99.90;;;;;;5066847;28;20123;-69
2023/11/20 09:23:38;;;;;;;13.18;2.83;;;10.90;99.90;;;;;;5067850;28;20049;-69
2023/11/20 09:26:08;;;;;;;14.52;2.30;;;11.00;99.90;;;;;;5070786;28;20403;-69
2023/11/20 09:28:34;;;;;;;14.23;2.72;;;11.00;99.90;;;;;;5069502;28;20045;-69
2023/11/20 09:31:00;;;;;;;12.90;2.13;;;10.90;99.90;;;;;;5071332;28;20046;-69
2023/11/20 09:33:25;;;;;;;21.15;2.85;;;11.00;99.90;;;;;;5074589;28;20648;-69
2023/11/20 09:35:51;;;;;;;20.58;4.10;;;11.10;99.90;;;;;;5072489;28;20033;-69
2023/11/20 09:38:17;;;;;;;18.48;2.53;;;11.30;99.90;;;;;;5071185;28;20041;-69
2023/11/20 09:40:44;;;;;;;21.85;3.67;;;11.30;99.90;;;;;;5071475;28;20056;-69
2023/11/20 09:43:09;;;;;;;14.05;2.38;;;11.50;99.90;;;;;;5069879;28;20044;-69
2023/11/20 09:45:39;;;;;;;20.60;3.05;;;11.50;99.90;;;;;;5070568;28;20036;-69
2023/11/20 09:48:06;;;;;;;19.02;2.65;;;11.60;99.90;;;;;;5072156;28;20062;-69
2023/11/20 09:50:32;;;;;;;17.33;2.72;;;11.70;99.90;;;;;;5069384;28;20119;-69
2023/11/20 09:52:59;;;;;;;15.27;3.80;;;11.80;99.90;;;;;;5071748;28;20189;-69
2023/11/20 09:55:25;;;;;;;17.95;3.25;;;11.90;99.90;;;;;;5073109;28;20048;-69
2023/11/20 09:57:51;;;;;;;18.85;3.70;;;12.10;99.90;;;;;;5071732;28;20401;-69
2023/11/20 10:00:18;;;;;;;20.23;3.10;;;12.10;99.90;;;;;;5070368;28;20083;-69
2023/11/20 10:02:48;;;;;;;17.63;2.65;;;12.20;99.90;;;;;;5105898;27;20032;-69
2023/11/20 10:05:20;;;;;;;18.98;3.92;;;12.10;99.90;;;;;;5108008;27;20507;-69
2023/11/20 10:07:47;;;;;;;16.45;2.75;;;12.10;99.90;;;;;;5075011;28;20040;-69
2023/11/20 10:10:13;;;;;;;17.13;3.72;;;12.10;99.90;;;;;;5060211;28;20475;-69
2023/11/20 10:12:40;;;;;;;18.33;2.85;;;12.00;99.90;;;;;;5072438;28;20036;-69
2023/11/20 10:15:07;;;;;;;16.27;3.17;;;12.10;99.90;;;;;;5071477;28;20544;-69
2023/11/20 10:17:36;;;;;;;12.95;3.53;;;11.90;99.90;;;;;;5105353;28;20574;-69
2023/11/20 10:20:02;;;;;;;14.88;2.70;;;12.00;99.90;;;;;;5071912;28;20372;-70
2023/11/20 10:22:34;;;;;;;15.15;2.45;;;12.00;99.90;;;;;;5071913;28;20137;-70
2023/11/20 10:25:04;;;;;;;17.05;3.40;;;12.00;99.90;;;;;;5066175;28;20052;-69
2023/11/20 10:27:31;;;;;;;19.55;3.47;;;12.10;99.90;;;;;;5074532;28;20042;-69
2023/11/20 10:29:57;;;;;;;12.00;2.78;;;12.10;99.90;;;;;;5103629;28;20053;-69
2023/11/20 10:32:25;;;;;;;18.85;2.80;;;12.10;99.90;;;;;;5071318;28;20847;-69
2023/11/20 10:35:11;;;;;;;18.08;2.78;;;12.10;99.90;;;;;;5070996;28;20124;-69
2023/11/20 10:37:55;;;;;;;21.08;3.47;;;12.40;99.90;;;;;;5072641;28;20126;-69
2023/11/20 10:40:22;;;;;;;18.63;3.28;;;12.20;99.90;;;;;;5070217;28;20055;-69
2023/11/20 10:42:48;;;;;;;18.92;3.38;;;12.40;99.90;;;;;;5072868;28;20079;-69
2023/11/20 10:45:13;;;;;;;17.17;3.90;;;12.20;99.90;;;;;;5106429;27;20541;-69
2023/11/20 10:47:41;;;;;;;19.42;3.17;;;12.30;99.90;;;;;;5104420;27;20040;-69
2023/11/20 10:50:10;;;;;;;12.45;2.47;;;12.30;99.90;;;;;;5069556;28;20032;-69
2023/11/20 10:52:39;;;;;;;17.85;3.05;;;12.30;99.90;;;;;;5070166;28;20041;-69
2023/11/20 10:55:11;;;;;;;12.98;2.17;;;12.30;99.90;;;;;;5070120;28;20159;-69
2023/11/20 10:57:38;;;;;;;16.55;2.90;;;12.20;99.90;;;;;;5074783;28;20024;-69
2023/11/20 11:00:12;;;;;;;16.80;2.53;;;12.10;99.90;;;;;;5070950;28;20046;-69
2023/11/20 11:02:42;;;;;;;15.10;2.70;;;12.00;99.90;;;;;;5072693;28;20058;-70
2023/11/20 11:05:10;;;;;;;17.98;3.92;;;12.00;99.90;;;;;;5070039;28;20040;-69
2023/11/20 11:07:39;;;;;;;15.32;2.40;;;12.00;99.90;;;;;;5102884;28;20040;-69
2023/11/20 11:10:10;;;;;;;17.52;2.58;;;11.90;99.90;;;;;;5067384;28;20054;-69
2023/11/20 11:12:41;;;;;;;17.92;3.80;;;11.90;99.90;;;;;;5071514;28;20045;-69
2023/11/20 11:15:12;;;;;;;16.67;3.15;;;12.00;99.90;;;;;;5064895;28;20047;-69
2023/11/20 11:17:43;;;;;;;17.17;2.80;;;12.00;99.90;;;;;;5072687;28;20130;-69
2023/11/20 11:20:13;;;;;;;19.52;5.38;;;12.10;99.90;;;;;;5104703;28;20087;-69
2023/11/20 11:22:43;;;;;;;23.92;3.83;;;12.10;99.90;;;;;;5071297;28;20048;-69
2023/11/20 11:25:10;;;;;;;19.30;3.78;;;12.20;99.90;;;;;;5069021;28;20491;-69
2023/11/20 11:27:58;;;;;;;19.38;3.65;;;12.10;99.90;;;;;;5068832;28;20089;-69
2023/11/20 11:30:36;;;;;;;16.05;3.45;;;12.20;99.90;;;;;;5068478;28;20123;-69
2023/11/20 11:33:34;;;;;;;17.75;3.90;;;12.20;99.90;;;;;;5064970;28;20041;-69
2023/11/20 11:36:24;;;;;;;17.65;3.90;;;12.20;99.90;;;;;;5071346;28;20506;-69
2023/11/20 11:39:03;;;;;;;23.65;3.88;;;12.30;99.90;;;;;;5069703;28;20044;-69
2023/11/20 11:41:53;;;;;;;14.20;3.22;;;12.20;99.90;;;;;;5068587;28;20040;-69
2023/11/20 11:44:34;;;;;;;17.27;2.78;;;12.40;99.90;;;;;;5068907;28;20051;-70
2023/11/20 11:47:03;;;;;;;19.85;5.72;;;12.10;99.90;;;;;;5071281;28;20051;-69
2023/11/20 11:49:29;;;;;;;19.10;4.45;;;12.00;99.90;;;;;;5069628;28;20048;-69
2023/11/20 11:52:03;;;;;;;26.67;4.30;;;11.90;99.90;;;;;;5070133;28;20040;-69
2023/11/20 11:54:30;;;;;;;17.77;3.35;;;12.00;99.90;;;;;;5072003;28;20041;-69
2023/11/20 11:57:22;;;;;;;15.35;2.88;;;12.00;99.90;;;;;;5104722;28;20061;-69
2023/11/20 11:59:49;;;;;;;12.70;2.75;;;12.10;99.90;;;;;;5068182;28;20048;-69
2023/11/20 12:02:18;;;;;;;18.60;3.67;;;12.30;99.90;;;;;;5071402;28;20041;-69
2023/11/20 12:04:55;;;;;;;18.92;3.10;;;12.40;99.90;;;;;;5103590;27;20095;-69
2023/11/20 12:07:45;;;;;;;20.15;3.83;;;12.50;99.90;;;;;;5070873;28;20076;-69
2023/11/20 12:10:11;;;;;;;14.43;2.80;;;12.40;99.90;;;;;;5070555;28;20485;-69
2023/11/20 12:12:47;;;;;;;14.07;1.98;;;12.40;99.90;;;;;;5072980;28;20082;-69
2023/11/20 12:15:37;;;;;;;16.77;3.92;;;12.40;99.90;;;;;;5068036;28;20612;-69
2023/11/20 12:18:13;;;;;;;14.35;3.25;;;12.30;99.90;;;;;;5086017;28;20388;-69
2023/11/20 12:21:01;;;;;;;15.82;3.13;;;12.30;99.90;;;;;;5067131;28;20040;-69
2023/11/20 12:23:30;;;;;;;15.00;2.72;;;12.20;99.90;;;;;;5068879;28;20131;-69
2023/11/20 12:25:57;;;;;;;21.40;3.38;;;12.20;99.90;;;;;;5068741;28;20040;-69
2023/11/20 12:28:24;;;;;;;15.68;2.85;;;12.20;99.90;;;;;;5069850;28;20348;-69
2023/11/20 12:30:50;;;;;;;12.13;2.60;;;12.20;99.90;;;;;;5070497;28;20037;-69
2023/11/20 12:33:16;;;;;;;21.33;3.35;;;12.00;99.90;;;;;;5070604;28;20522;-69
2023/11/20 12:35:41;;;;;;;16.38;2.75;;;12.10;99.90;;;;;;5102092;28;20036;-69
2023/11/20 12:38:07;;;;;;;16.85;3.35;;;12.10;99.90;;;;;;5071174;28;20050;-69
2023/11/20 12:40:35;;;;;;;18.42;3.35;;;12.10;99.90;;;;;;5070142;28;20094;-69
2023/11/20 12:43:00;;;;;;;14.98;3.50;;;12.10;99.90;;;;;;5071207;28;20410;-69